Wildwood Camp, Iowa
Current Conditions -  °F | °C
As of 8:41 AM on Saturday 25 Oct 2014 (Local Time) from KDVN Reporting Station
Haze Haze  
Wind Chill: 50°   Ceiling: 200
Heat Index: 50°   Visibility: 1mi
Dew Point: 49°   Wind: 7mph
Humidity: 96%   Direction: 320°NW
Pressure: 30.01"   Gusts: NA
Location:  41.7317°N, 90.5411°W
Report Text: KDVN 251341Z AUTO 32006KT 1SM BR VV002 10/09 A3001 RMK AO2 T01000094 TSNO
Loading
Personal Weather Stations






























Interactive Weather Map New forecast layout! Learn more

10-Day Weather Forecast

Advertisements
Track Severe Weather on mobile